Time;durP1;ratioP1;P1;durP2;ratioP2;P2;SDS_P1;SDS_P2;PMS_P1;PMS_P2;Temp;Humidity;BMP_temperature;BMP_pressure;BME280_temperature;BME280_humidity;BME280_pressure;Samples;Min_cycle;Max_cycle;Signal;HPM_P1;HPM_P2
2021/11/03 00:01:39;;;;;;;36.75;22.35;;;;;;;7.23;100.00;99312.69;6294294;28;20053;-76
2021/11/03 00:04:41;;;;;;;37.63;20.52;;;;;;;7.27;100.00;99321.13;6271511;28;20041;-76
2021/11/03 00:07:42;;;;;;;32.97;20.67;;;;;;;7.29;100.00;99324.47;6254170;28;20049;-76
2021/11/03 00:10:44;;;;;;;33.10;20.80;;;;;;;7.28;100.00;99332.34;6271531;28;20045;-76
2021/11/03 00:13:45;;;;;;;32.50;19.17;;;;;;;7.28;100.00;99333.16;6271777;28;20044;-72
2021/11/03 00:16:46;;;;;;;31.70;17.92;;;;;;;7.25;100.00;99338.56;6271139;28;20041;-76
2021/11/03 00:19:47;;;;;;;29.67;18.00;;;;;;;7.29;100.00;99340.03;6271918;28;20440;-72
2021/11/03 00:22:47;;;;;;;28.15;16.40;;;;;;;7.34;100.00;99345.78;6270846;28;20052;-73
2021/11/03 00:25:48;;;;;;;29.90;18.63;;;;;;;7.28;100.00;99343.53;6254264;28;20041;-76
2021/11/03 00:28:50;;;;;;;33.63;19.08;;;;;;;7.24;100.00;99355.03;6271138;28;20045;-72
2021/11/03 00:31:51;;;;;;;29.77;18.25;;;;;;;7.23;100.00;99356.78;6270378;28;20091;-72
2021/11/03 00:34:52;;;;;;;33.38;18.58;;;;;;;7.23;100.00;99361.16;6270740;28;20457;-72
2021/11/03 00:37:53;;;;;;;31.50;18.55;;;;;;;7.22;100.00;99352.50;6271615;28;20045;-72
2021/11/03 00:40:55;;;;;;;31.98;19.02;;;;;;;7.15;100.00;99359.00;6253970;28;20041;-74
2021/11/03 00:43:56;;;;;;;;;;;;;;;7.16;100.00;99362.41;6272414;28;20037;-72
2021/11/03 00:46:57;;;;;;;27.35;17.85;;;;;;;7.16;100.00;99373.63;6270904;28;20371;-76
2021/11/03 00:49:57;;;;;;;32.67;19.77;;;;;;;7.15;100.00;99368.53;6272247;28;20088;-76
2021/11/03 00:52:58;;;;;;;28.65;17.27;;;;;;;6.99;100.00;99376.38;6254098;28;20049;-72
2021/11/03 00:55:59;;;;;;;29.08;17.40;;;;;;;6.94;100.00;99380.97;6270491;28;20045;-72
2021/11/03 00:58:59;;;;;;;26.27;15.55;;;;;;;6.95;100.00;99386.06;6270151;28;20048;-72
2021/11/03 01:02:00;;;;;;;31.10;17.83;;;;;;;6.88;100.00;99391.69;6271284;28;20066;-72
2021/11/03 01:05:02;;;;;;;33.03;17.75;;;;;;;6.87;100.00;99401.22;6270546;28;20045;-76
2021/11/03 01:08:03;;;;;;;29.43;17.10;;;;;;;6.90;100.00;99414.03;6270815;28;20045;-76
2021/11/03 01:11:03;;;;;;;27.60;17.02;;;;;;;6.84;100.00;99419.56;6270802;28;20052;-76
2021/11/03 01:14:06;;;;;;;29.85;17.35;;;;;;;6.88;100.00;99426.25;6271986;28;20049;-76
2021/11/03 01:17:07;;;;;;;27.40;16.33;;;;;;;6.88;100.00;99428.00;6272201;28;20071;-76
2021/11/03 01:20:10;;;;;;;25.33;15.43;;;;;;;6.78;100.00;99433.69;6271706;28;20045;-75
2021/11/03 01:23:12;;;;;;;24.98;16.00;;;;;;;6.76;100.00;99438.13;6270665;28;20472;-76
2021/11/03 01:26:13;;;;;;;29.08;15.50;;;;;;;6.75;100.00;99438.22;6270422;28;20041;-76
2021/11/03 01:29:14;;;;;;;24.73;14.02;;;;;;;6.75;100.00;99446.00;6241281;28;20110;-76
2021/11/03 01:32:14;;;;;;;23.98;14.32;;;;;;;6.65;100.00;99435.28;6275452;28;20048;-73
2021/11/03 01:35:16;;;;;;;25.08;16.50;;;;;;;6.62;100.00;99445.81;6278984;28;20044;-72
2021/11/03 01:38:16;;;;;;;22.92;14.93;;;;;;;6.51;100.00;99443.81;6298246;28;20047;-76
2021/11/03 01:41:18;;;;;;;21.83;13.57;;;;;;;6.40;100.00;99453.91;6281333;28;20048;-72
2021/11/03 01:44:19;;;;;;;22.52;13.93;;;;;;;6.35;100.00;99453.34;6298204;28;20041;-76
2021/11/03 01:47:53;;;;;;;24.17;14.40;;;;;;;6.28;100.00;99458.00;6279369;28;20395;-76
2021/11/03 01:50:56;;;;;;;22.25;13.60;;;;;;;6.17;100.00;99453.38;6274175;28;20060;-76
2021/11/03 01:53:59;;;;;;;19.45;13.43;;;;;;;6.16;100.00;99467.25;6274413;28;20099;-76
2021/11/03 01:57:05;;;;;;;22.73;14.50;;;;;;;6.16;100.00;99466.44;6287400;28;20041;-76
2021/11/03 02:00:11;;;;;;;19.63;13.30;;;;;;;6.11;100.00;99471.00;6298977;28;20075;-76
2021/11/03 02:03:15;;;;;;;22.08;14.30;;;;;;;6.03;100.00;99461.03;6298883;28;20041;-72
2021/11/03 02:06:23;;;;;;;22.25;12.95;;;;;;;6.08;100.00;99466.00;6297584;28;20442;-72
2021/11/03 02:09:23;;;;;;;19.48;12.77;;;;;;;5.97;100.00;99458.75;6298776;28;20041;-72
2021/11/03 02:12:28;;;;;;;20.85;13.45;;;;;;;5.93;100.00;99471.00;6297450;28;20037;-76
2021/11/03 02:15:29;;;;;;;18.98;13.07;;;;;;;5.77;100.00;99478.72;6297576;28;20044;-76
2021/11/03 02:18:32;;;;;;;21.33;13.82;;;;;;;5.74;100.00;99485.78;6282443;28;20045;-76
2021/11/03 02:22:00;;;;;;;19.55;13.02;;;;;;;5.67;100.00;99479.25;6274563;28;20045;-76
2021/11/03 02:25:08;;;;;;;25.30;13.07;;;;;;;5.61;100.00;99477.81;6291554;28;20064;-76
2021/11/03 02:28:11;;;;;;;21.90;13.88;;;;;;;5.58;100.00;99483.97;6298337;28;20174;-71
2021/11/03 02:31:36;;;;;;;21.55;13.35;;;;;;;5.52;100.00;99492.03;6298033;28;20043;-76
2021/11/03 02:34:37;;;;;;;20.13;13.07;;;;;;;5.43;100.00;99490.72;6298229;28;20048;-76
2021/11/03 02:37:45;;;;;;;20.77;12.85;;;;;;;5.44;100.00;99494.16;6273441;28;20056;-76
2021/11/03 02:40:54;;;;;;;23.30;13.40;;;;;;;5.38;100.00;99502.22;6293761;28;20115;-72
2021/11/03 02:44:16;;;;;;;17.30;12.48;;;;;;;5.30;100.00;99507.75;6273799;28;20037;-72
2021/11/03 02:47:17;;;;;;;20.85;12.00;;;;;;;5.26;100.00;99524.34;6290609;28;20091;-72
2021/11/03 02:50:18;;;;;;;20.00;12.98;;;;;;;5.27;100.00;99538.09;6297268;28;20058;-72
2021/11/03 02:53:19;;;;;;;20.73;13.18;;;;;;;5.18;100.00;99534.19;6298108;28;20044;-72
2021/11/03 02:56:23;;;;;;;21.30;13.02;;;;;;;5.18;100.00;99542.78;6293392;28;20464;-73
2021/11/03 02:59:26;;;;;;;20.35;12.00;;;;;;;5.21;100.00;99541.84;6273361;28;20083;-72
2021/11/03 03:02:27;;;;;;;41.78;26.20;;;;;;;5.07;100.00;99546.81;6272104;28;20484;-72
2021/11/03 03:05:28;;;;;;;22.23;13.50;;;;;;;5.14;100.00;99545.59;6273591;28;20049;-76
2021/11/03 03:08:29;;;;;;;26.80;16.02;;;;;;;5.01;100.00;99535.81;6255887;28;20498;-71
2021/11/03 03:11:32;;;;;;;21.25;14.93;;;;;;;5.01;100.00;99538.41;6271855;28;20456;-72
2021/11/03 03:14:37;;;;;;;21.42;15.25;;;;;;;5.01;100.00;99537.59;6273090;28;20037;-72
2021/11/03 03:17:38;;;;;;;25.08;15.20;;;;;;;4.90;100.00;99537.22;6273135;28;20052;-72
2021/11/03 03:20:39;;;;;;;21.60;14.75;;;;;;;4.81;100.00;99541.91;6295788;28;20131;-72
2021/11/03 03:23:40;;;;;;;32.80;20.23;;;;;;;4.82;100.00;99548.75;6279965;28;20047;-76
2021/11/03 03:26:42;;;;;;;21.17;13.50;;;;;;;4.74;100.00;99547.44;6280109;28;20056;-72
2021/11/03 03:29:44;;;;;;;24.00;13.45;;;;;;;4.78;100.00;99549.81;6296628;28;20391;-76
2021/11/03 03:32:44;;;;;;;19.10;12.85;;;;;;;4.79;100.00;99551.47;6297920;28;20037;-76
2021/11/03 03:35:45;;;;;;;20.02;13.07;;;;;;;4.76;100.00;99554.22;6297829;28;20044;-76
2021/11/03 03:38:46;;;;;;;22.98;12.43;;;;;;;4.71;100.00;99569.06;6298103;28;20411;-76
2021/11/03 03:41:58;;;;;;;19.27;12.60;;;;;;;4.79;100.00;99581.66;6297486;28;20044;-76
2021/11/03 03:44:58;;;;;;;18.38;12.50;;;;;;;4.84;100.00;99574.56;6296792;28;20045;-76
2021/11/03 03:47:59;;;;;;;22.63;13.15;;;;;;;4.76;100.00;99584.41;6297021;28;20040;-72
2021/11/03 03:51:00;;;;;;;23.10;13.40;;;;;;;4.69;100.00;99581.22;6295062;28;20136;-72
2021/11/03 03:54:02;;;;;;;17.75;11.60;;;;;;;4.71;100.00;99584.56;6295900;28;20052;-72
2021/11/03 03:57:03;;;;;;;16.90;11.63;;;;;;;4.68;100.00;99594.22;6279599;28;20475;-76
2021/11/03 04:00:11;;;;;;;16.30;11.07;;;;;;;4.54;100.00;99593.06;6279832;28;20048;-76
2021/11/03 04:03:12;;;;;;;16.88;10.95;;;;;;;4.55;100.00;99593.91;6297564;28;20049;-76
2021/11/03 04:06:13;;;;;;;19.17;11.20;;;;;;;4.59;100.00;99604.06;6296326;28;20067;-72
2021/11/03 04:09:14;;;;;;;17.77;11.10;;;;;;;4.56;100.00;99603.34;6295868;28;20473;-72
2021/11/03 04:12:15;;;;;;;22.20;11.80;;;;;;;4.51;100.00;99598.41;6278885;28;20048;-72
2021/11/03 04:15:17;;;;;;;16.85;10.18;;;;;;;4.54;100.00;99600.00;6278931;28;20041;-72
2021/11/03 04:18:18;;;;;;;21.90;11.80;;;;;;;4.61;100.00;99616.91;6296498;28;20550;-76
2021/11/03 04:21:19;;;;;;;19.33;11.88;;;;;;;4.54;100.00;99618.09;6297592;28;20036;-76
2021/11/03 04:24:20;;;;;;;16.38;10.75;;;;;;;4.53;100.00;99629.31;6275367;28;20037;-76
2021/11/03 04:27:21;;;;;;;21.40;11.85;;;;;;;4.53;100.00;99637.94;6288250;28;20090;-76
2021/11/03 04:30:24;;;;;;;19.58;11.73;;;;;;;4.43;100.00;99634.88;6271526;28;20045;-76
2021/11/03 04:33:25;;;;;;;17.65;11.95;;;;;;;4.31;100.00;99627.66;6272707;28;20073;-76
2021/11/03 04:36:26;;;;;;;21.05;11.43;;;;;;;4.32;100.00;99624.16;6272312;28;20041;-76
2021/11/03 04:39:27;;;;;;;20.17;11.80;;;;;;;4.35;100.00;99631.78;6272785;28;20098;-76
2021/11/03 04:42:28;;;;;;;20.77;12.02;;;;;;;4.40;100.00;99626.41;6254482;28;20120;-77
2021/11/03 04:45:28;;;;;;;16.70;11.15;;;;;;;4.45;100.00;99624.50;6271379;28;20384;-76
2021/11/03 04:48:29;;;;;;;17.83;11.63;;;;;;;4.52;100.00;99625.06;6270835;28;20124;-76
2021/11/03 04:51:30;;;;;;;19.73;11.20;;;;;;;4.47;100.00;99629.56;6272261;28;20049;-76
2021/11/03 04:54:31;;;;;;;23.83;12.10;;;;;;;4.44;100.00;99633.13;6238078;28;20369;-72
2021/11/03 04:57:35;;;;;;;21.42;11.50;;;;;;;4.46;100.00;99636.50;6271555;28;20037;-72
2021/11/03 05:00:37;;;;;;;20.58;12.52;;;;;;;4.49;100.00;99631.22;6272584;28;20395;-76
2021/11/03 05:03:37;;;;;;;26.70;13.10;;;;;;;4.44;100.00;99630.53;6276871;28;20075;-72
2021/11/03 05:06:40;;;;;;;19.60;12.05;;;;;;;4.60;100.00;99643.66;6276152;28;20040;-71
2021/11/03 05:09:42;;;;;;;20.42;11.70;;;;;;;4.46;100.00;99628.75;6276135;28;20059;-72
2021/11/03 05:12:43;;;;;;;27.05;12.20;;;;;;;4.26;100.00;99645.06;6275725;28;20195;-72
2021/11/03 05:15:44;;;;;;;20.25;11.82;;;;;;;4.28;100.00;99639.84;6258700;28;20509;-76
2021/11/03 05:18:45;;;;;;;23.00;13.68;;;;;;;4.34;100.00;99643.00;6259014;28;20041;-76
2021/11/03 05:21:48;;;;;;;20.08;13.07;;;;;;;4.38;100.00;99652.31;6258895;28;20474;-76
2021/11/03 05:24:49;;;;;;;19.13;12.82;;;;;;;4.34;100.00;99649.91;6275214;28;20041;-76
2021/11/03 05:27:50;;;;;;;30.23;22.38;;;;;;;4.36;100.00;99661.03;6274183;28;20072;-76
2021/11/03 05:30:51;;;;;;;20.45;11.18;;;;;;;4.26;100.00;99660.56;6275141;28;20044;-76
2021/11/03 05:33:53;;;;;;;17.50;11.35;;;;;;;4.20;100.00;99666.84;6274571;28;20056;-76
2021/11/03 05:36:54;;;;;;;24.02;15.00;;;;;;;4.12;100.00;99674.06;6308849;28;20075;-76
2021/11/03 05:39:54;;;;;;;20.98;14.50;;;;;;;4.18;100.00;99671.22;6276044;28;20045;-76
2021/11/03 05:42:56;;;;;;;19.80;12.48;;;;;;;4.12;100.00;99684.38;6274392;28;20045;-72
2021/11/03 05:45:57;;;;;;;18.45;12.77;;;;;;;4.14;100.00;99680.00;6274162;28;20045;-72
2021/11/03 05:48:59;;;;;;;104.43;52.05;;;;;;;4.21;100.00;99694.34;6241300;28;20060;-76
2021/11/03 05:52:04;;;;;;;19.70;12.73;;;;;;;4.28;100.00;99699.25;6288890;28;20071;-76
2021/11/03 05:55:05;;;;;;;18.92;11.50;;;;;;;4.27;100.00;99703.59;6291239;28;20041;-76
2021/11/03 05:58:06;;;;;;;18.48;11.60;;;;;;;4.30;100.00;99706.03;6292545;28;20503;-73
2021/11/03 06:01:07;;;;;;;16.80;10.38;;;;;;;4.19;100.00;99721.97;6284060;28;20080;-73
2021/11/03 06:04:08;;;;;;;17.35;11.10;;;;;;;4.16;100.00;99723.81;6277668;28;20079;-76
2021/11/03 06:07:10;;;;;;;15.65;11.10;;;;;;;4.14;100.00;99731.66;6288768;28;20110;-76
2021/11/03 06:10:12;;;;;;;19.05;11.43;;;;;;;4.14;100.00;99734.22;6298832;28;20047;-76
2021/11/03 06:13:14;;;;;;;17.35;11.15;;;;;;;4.19;100.00;99742.63;6280138;28;20037;-73
2021/11/03 06:16:16;;;;;;;20.10;12.48;;;;;;;4.26;100.00;99748.38;6264461;28;20098;-72
2021/11/03 06:19:16;;;;;;;18.65;11.43;;;;;;;4.31;100.00;99753.38;6297626;28;20044;-73
2021/11/03 06:22:17;;;;;;;18.02;10.93;;;;;;;4.36;100.00;99756.59;6297113;28;20411;-73
2021/11/03 06:25:19;;;;;;;17.08;11.43;;;;;;;4.35;100.00;99760.09;6297520;28;20048;-76
2021/11/03 06:28:20;;;;;;;16.33;11.43;;;;;;;4.44;100.00;99760.56;6297457;28;20037;-76
2021/11/03 06:31:22;;;;;;;15.55;10.63;;;;;;;4.57;100.00;99762.63;6297470;28;20049;-76
2021/11/03 06:34:23;;;;;;;15.32;10.38;;;;;;;4.56;100.00;99768.72;6281464;28;20029;-75
2021/11/03 06:37:25;;;;;;;18.02;10.40;;;;;;;4.67;100.00;99766.53;6256474;28;20128;-76
2021/11/03 06:40:26;;;;;;;19.10;10.90;;;;;;;4.87;100.00;99772.63;6271330;28;20041;-76
2021/11/03 06:43:27;;;;;;;16.27;11.05;;;;;;;5.00;100.00;99779.81;6271380;28;20045;-76
2021/11/03 06:46:28;;;;;;;13.45;9.63;;;;;;;5.15;100.00;99787.81;6272971;28;20040;-73
2021/11/03 06:49:29;;;;;;;15.23;10.50;;;;;;;5.14;100.00;99788.72;6272796;28;20167;-73
2021/11/03 06:52:32;;;;;;;15.43;10.55;;;;;;;5.24;100.00;99782.25;6272545;28;20487;-76
2021/11/03 06:55:33;;;;;;;14.23;10.43;;;;;;;5.36;100.00;99779.13;6271541;28;20037;-76
2021/11/03 06:58:34;;;;;;;15.20;10.60;;;;;;;5.38;100.00;99779.06;6272891;28;20398;-76
2021/11/03 07:01:35;;;;;;;15.45;10.63;;;;;;;5.47;100.00;99778.66;6272603;28;20052;-76
2021/11/03 07:04:36;;;;;;;14.05;9.45;;;;;;;5.58;100.00;99780.75;6272529;28;20060;-72
2021/11/03 07:07:37;;;;;;;16.40;10.18;;;;;;;5.60;100.00;99779.78;6270905;28;20554;-73
2021/11/03 07:10:41;;;;;;;14.75;9.13;;;;;;;5.74;100.00;99766.19;6272154;28;20076;-72
2021/11/03 07:13:42;;;;;;;14.27;9.88;;;;;;;5.96;100.00;99765.25;6270736;28;20491;-73
2021/11/03 07:16:42;;;;;;;14.32;9.70;;;;;;;6.02;100.00;99759.81;6254334;28;20033;-73
2021/11/03 07:19:44;;;;;;;15.68;9.40;;;;;;;6.09;100.00;99761.19;6270839;28;20049;-73
2021/11/03 07:22:44;;;;;;;15.15;9.13;;;;;;;6.35;100.00;99764.28;6271986;28;20080;-73
2021/11/03 07:25:46;;;;;;;12.90;9.32;;;;;;;6.43;100.00;99773.38;6270597;28;20067;-73
2021/11/03 07:28:46;;;;;;;18.33;9.73;;;;;;;6.53;100.00;99778.94;6270461;28;20040;-73
2021/11/03 07:31:47;;;;;;;18.70;11.65;;;;;;;6.62;100.00;99775.06;6256140;28;20124;-73
2021/11/03 07:34:48;;;;;;;14.82;11.07;;;;;;;6.74;100.00;99778.81;6289242;28;20051;-73
2021/11/03 07:37:49;;;;;;;18.05;12.15;;;;;;;6.92;100.00;99774.44;6281520;28;20411;-73
2021/11/03 07:40:55;;;;;;;19.02;10.68;;;;;;;7.03;100.00;99777.34;6279007;28;20487;-72
2021/11/03 07:43:56;;;;;;;18.27;9.55;;;;;;;7.14;100.00;99782.00;6271463;28;20095;-72
2021/11/03 07:46:56;;;;;;;12.93;8.93;;;;;;;7.36;100.00;99782.56;6286601;28;20040;-72
2021/11/03 07:49:57;;;;;;;12.05;8.02;;;;;;;7.43;100.00;99783.94;6290362;28;20537;-73
2021/11/03 07:52:59;;;;;;;12.00;9.25;;;;;;;7.58;100.00;99797.84;6294929;28;20048;-73
2021/11/03 07:56:05;;;;;;;13.65;8.82;;;;;;;7.72;100.00;99796.28;6294857;28;20045;-72
2021/11/03 07:59:07;;;;;;;22.15;10.18;;;;;;;7.91;100.00;99790.94;6278734;28;20049;-72
2021/11/03 08:02:09;;;;;;;12.25;8.68;;;;;;;8.01;100.00;99802.50;6294841;28;20156;-72
2021/11/03 08:05:10;;;;;;;13.07;9.48;;;;;;;8.21;100.00;99793.63;6289589;28;20068;-72
2021/11/03 08:08:13;;;;;;;16.92;8.73;;;;;;;8.31;100.00;99796.56;6270979;28;20047;-72
2021/11/03 08:11:15;;;;;;;10.18;7.47;;;;;;;8.38;100.00;99801.34;6269879;28;20071;-72
2021/11/03 08:14:22;;;;;;;9.23;6.22;;;;;;;8.36;100.00;99808.38;6282388;28;20037;-76
2021/11/03 08:17:27;;;;;;;8.98;6.13;;;;;;;8.55;100.00;99815.19;6296132;28;20036;-76
2021/11/03 08:20:28;;;;;;;10.13;7.20;;;;;;;8.81;100.00;99818.88;6296003;28;20033;-76
2021/11/03 08:23:29;;;;;;;11.90;8.15;;;;;;;8.91;100.00;99827.00;6328823;28;20050;-76
2021/11/03 08:26:30;;;;;;;10.15;6.45;;;;;;;9.10;100.00;99821.56;6278115;28;20060;-77
2021/11/03 08:29:30;;;;;;;10.43;7.50;;;;;;;9.25;100.00;99821.50;6252807;28;20059;-77
2021/11/03 08:32:36;;;;;;;9.10;5.70;;;;;;;9.16;100.00;99811.66;6294561;28;20044;-77
2021/11/03 08:35:40;;;;;;;9.32;6.90;;;;;;;9.22;100.00;99813.03;6297337;28;20048;-76
2021/11/03 08:38:41;;;;;;;9.70;7.30;;;;;;;9.35;100.00;99810.53;6299817;28;20051;-77
2021/11/03 08:41:42;;;;;;;10.00;6.95;;;;;;;9.57;100.00;99818.72;6300859;28;20054;-76
2021/11/03 08:44:43;;;;;;;11.32;7.55;;;;;;;9.80;100.00;99825.16;6300664;28;20040;-77
2021/11/03 08:47:44;;;;;;;14.32;8.40;;;;;;;9.95;100.00;99820.78;6299383;28;20403;-76
2021/11/03 08:50:46;;;;;;;10.90;7.77;;;;;;;10.00;100.00;99826.53;6293287;28;20053;-73
2021/11/03 08:53:47;;;;;;;11.63;8.32;;;;;;;10.04;100.00;99817.56;6275440;28;20068;-73
2021/11/03 08:56:48;;;;;;;10.70;7.43;;;;;;;10.28;100.00;99814.38;6275434;28;20063;-76
2021/11/03 08:59:48;;;;;;;9.80;7.15;;;;;;;10.23;100.00;99826.84;6257848;28;20075;-76
2021/11/03 09:02:49;;;;;;;12.68;7.85;;;;;;;10.17;100.00;99824.63;6266798;28;20044;-76
2021/11/03 09:05:51;;;;;;;11.50;7.53;;;;;;;10.48;100.00;99820.97;6276023;28;20120;-72
2021/11/03 09:08:52;;;;;;;10.57;7.55;;;;;;;10.58;99.02;99819.41;6275197;28;20480;-76
2021/11/03 09:11:53;;;;;;;9.45;7.40;;;;;;;10.62;96.87;99820.88;6274015;28;20048;-76
2021/11/03 09:14:53;;;;;;;9.50;7.25;;;;;;;10.61;97.22;99827.06;6273722;28;20120;-76
2021/11/03 09:17:55;;;;;;;9.65;7.57;;;;;;;10.71;99.10;99826.44;6290524;28;20048;-77
2021/11/03 09:20:56;;;;;;;10.80;8.07;;;;;;;10.87;100.00;99840.16;6298735;28;20036;-77
2021/11/03 09:23:57;;;;;;;10.15;8.10;;;;;;;10.85;97.88;99836.81;6298862;28;20071;-76
2021/11/03 09:26:58;;;;;;;11.23;8.27;;;;;;;10.99;97.20;99830.69;6298435;28;20406;-76
2021/11/03 09:29:58;;;;;;;12.18;8.50;;;;;;;11.32;94.00;99829.38;6297503;28;20032;-73
2021/11/03 09:33:02;;;;;;;11.20;8.57;;;;;;;11.43;98.45;99824.28;6266371;28;20114;-71
2021/11/03 09:36:12;;;;;;;11.60;8.48;;;;;;;11.45;92.56;99831.06;6274717;28;20068;-72
2021/11/03 09:39:15;;;;;;;10.73;8.38;;;;;;;11.51;92.59;99821.97;6292699;28;20465;-76
2021/11/03 09:42:23;;;;;;;12.52;8.43;;;;;;;11.57;93.18;99810.25;6258420;28;20045;-76
2021/11/03 09:45:34;;;;;;;12.88;8.55;;;;;;;11.73;93.03;99815.25;6294062;28;20063;-76
2021/11/03 09:48:35;;;;;;;12.48;9.07;;;;;;;11.63;92.58;99813.28;6290979;28;20060;-76
2021/11/03 09:51:37;;;;;;;10.87;8.10;;;;;;;11.82;92.11;99807.59;6283029;28;20080;-72
2021/11/03 09:54:38;;;;;;;;;;;;;;;12.12;89.96;99819.47;6275110;28;20207;-76
2021/11/03 09:57:46;;;;;;;11.55;8.40;;;;;;;12.15;87.78;99816.66;6275085;28;19921;-76
2021/11/03 10:00:56;;;;;;;11.00;8.68;;;;;;;12.25;85.21;99795.88;6281466;28;20060;-76
2021/11/03 10:04:05;;;;;;;12.55;9.30;;;;;;;12.36;86.32;99798.59;6282185;28;20036;-76
2021/11/03 10:07:30;;;;;;;14.30;8.65;;;;;;;12.34;87.59;99789.19;6298563;28;20119;-76
2021/11/03 10:10:59;;;;;;;11.88;8.82;;;;;;;12.65;82.65;99790.38;6297503;28;20043;-72
2021/11/03 10:14:01;;;;;;;12.93;8.82;;;;;;;12.75;83.59;99785.31;6282454;28;20056;-73
2021/11/03 10:17:19;;;;;;;9.45;7.85;;;;;;;12.78;83.62;99774.59;6272238;28;20418;-73
2021/11/03 10:20:31;;;;;;;10.98;7.75;;;;;;;12.80;83.20;99778.75;6273874;28;20067;-73
2021/11/03 10:23:34;;;;;;;9.30;6.57;;;;;;;13.02;79.86;99782.41;6277381;28;20048;-72
2021/11/03 10:26:50;;;;;;;9.95;7.32;;;;;;;12.85;80.16;99779.28;6289331;28;20047;-72
2021/11/03 10:29:53;;;;;;;11.95;7.15;;;;;;;13.07;79.32;99781.13;6298077;28;20064;-72
2021/11/03 10:32:55;;;;;;;8.82;6.07;;;;;;;13.24;79.22;99769.34;6286695;28;20539;-72
2021/11/03 10:36:01;;;;;;;10.65;7.35;;;;;;;13.42;77.15;99776.75;6273003;28;20041;-72
2021/11/03 10:39:13;;;;;;;9.45;7.15;;;;;;;13.37;77.47;99771.88;6272067;28;20045;-72
2021/11/03 10:42:19;;;;;;;9.02;6.82;;;;;;;13.43;75.59;99763.53;6272583;28;20041;-72
2021/11/03 10:45:32;;;;;;;10.68;7.70;;;;;;;13.68;76.09;99759.84;6291588;28;20045;-71
2021/11/03 10:48:33;;;;;;;8.93;6.82;;;;;;;13.65;74.40;99759.22;6278468;28;20041;-72
2021/11/03 10:51:39;;;;;;;12.43;7.47;;;;;;;13.64;77.14;99768.06;6278062;28;20094;-72
2021/11/03 10:55:12;;;;;;;11.73;8.02;;;;;;;13.78;75.54;99761.75;6285402;28;20037;-72
2021/11/03 10:58:19;;;;;;;11.68;6.95;;;;;;;13.94;74.09;99753.47;6272470;28;20086;-72
2021/11/03 11:01:23;;;;;;;8.70;6.25;;;;;;;14.10;74.00;99754.78;6271345;28;20151;-72
2021/11/03 11:04:31;;;;;;;7.50;6.13;;;;;;;14.23;74.04;99756.41;6271306;28;20538;-72
2021/11/03 11:07:54;;;;;;;9.05;5.97;;;;;;;14.29;69.87;99763.78;6271152;28;20044;-72
2021/11/03 11:11:00;;;;;;;7.57;5.72;;;;;;;14.31;71.18;99775.00;6272343;28;20458;-70
2021/11/03 11:14:05;;;;;;;7.82;5.82;;;;;;;14.51;70.44;99773.34;6270997;28;20056;-71
2021/11/03 11:21:35;;;;;;;12.70;6.28;;;;;;;14.12;70.24;99770.38;6272242;28;20395;-70
2021/11/03 11:24:47;;;;;;;11.20;6.82;;;;;;;14.28;71.80;99752.44;6304237;28;20054;-70
2021/11/03 11:28:11;;;;;;;13.07;6.38;;;;;;;14.37;70.46;99753.50;6293522;28;20036;-70
2021/11/03 11:31:33;;;;;;;8.88;5.93;;;;;;;14.44;69.72;99745.94;6312621;28;20055;-71
2021/11/03 11:35:02;;;;;;;11.45;5.88;;;;;;;14.61;68.86;99734.91;6296611;28;20036;-70
2021/11/03 11:38:11;;;;;;;12.10;5.22;;;;;;;14.43;67.85;99744.25;6295312;28;20044;-70
2021/11/03 11:41:15;;;;;;;8.00;5.10;;;;;;;14.52;68.25;99740.91;6271574;28;20080;-70
2021/11/03 11:44:25;;;;;;;8.55;5.68;;;;;;;14.32;70.33;99724.16;6270299;28;20468;-70
2021/11/03 11:47:40;;;;;;;8.23;5.90;;;;;;;14.42;69.18;99732.94;6270203;28;20045;-70
2021/11/03 11:50:48;;;;;;;9.57;5.30;;;;;;;14.34;68.06;99731.91;6273982;28;20097;-70
2021/11/03 11:53:52;;;;;;;11.45;5.85;;;;;;;14.37;67.51;99731.66;6284650;28;20045;-70
2021/11/03 11:57:10;;;;;;;7.57;4.55;;;;;;;14.38;66.64;99721.03;6282691;28;20052;-70
2021/11/03 12:00:17;;;;;;;8.43;5.60;;;;;;;14.47;67.75;99720.25;6282374;28;20037;-71
2021/11/03 12:03:27;;;;;;;7.70;5.15;;;;;;;14.23;66.23;99711.81;6270025;28;20132;-70
2021/11/03 12:06:45;;;;;;;7.70;4.78;;;;;;;14.48;63.29;99714.06;6271437;28;20090;-70
2021/11/03 12:10:09;;;;;;;7.68;4.93;;;;;;;14.29;64.09;99711.31;6269389;28;20049;-70
2021/11/03 12:13:11;;;;;;;7.57;4.68;;;;;;;14.37;64.55;99713.28;6269839;28;20037;-70
2021/11/03 12:16:23;;;;;;;7.78;4.53;;;;;;;14.41;63.71;99701.56;6271182;28;20045;-74
2021/11/03 12:19:44;;;;;;;8.07;4.53;;;;;;;14.58;66.65;99697.56;6271179;28;20499;-74
2021/11/03 12:22:51;;;;;;;6.63;4.57;;;;;;;14.31;67.02;99691.00;6271129;28;20045;-70
2021/11/03 12:25:51;;;;;;;7.30;5.20;;;;;;;13.96;65.43;99686.00;6271062;28;20525;-74
2021/11/03 12:29:18;;;;;;;7.63;4.55;;;;;;;13.65;66.98;99683.22;6269706;28;20041;-74
2021/11/03 12:32:53;;;;;;;9.00;5.00;;;;;;;13.43;70.50;99689.34;6274612;28;20041;-74
2021/11/03 12:36:10;;;;;;;7.75;5.45;;;;;;;13.62;69.74;99683.47;6270702;28;20315;-74
2021/11/03 12:39:32;;;;;;;6.22;4.25;;;;;;;13.98;69.25;99679.69;6268822;28;20069;-69
2021/11/03 12:42:44;;;;;;;6.50;4.53;;;;;;;14.31;67.76;99670.84;6270705;28;20057;-74
2021/11/03 12:46:03;;;;;;;6.47;4.63;;;;;;;14.42;66.30;99674.38;6270427;28;20127;-70
2021/11/03 12:49:14;;;;;;;9.93;3.70;;;;;;;14.37;67.34;99671.28;6270472;28;20053;-70
2021/11/03 12:52:23;;;;;;;5.32;3.75;;;;;;;14.36;66.37;99669.63;6270480;28;20045;-70
2021/11/03 12:55:28;;;;;;;5.15;3.45;;;;;;;14.21;64.03;99674.34;6269322;28;20509;-74
2021/11/03 12:58:43;;;;;;;6.60;4.50;;;;;;;14.26;63.86;99673.00;6270412;28;20045;-74
2021/11/03 13:01:48;;;;;;;5.90;3.15;;;;;;;14.26;63.29;99669.53;6274522;28;20041;-74
2021/11/03 13:05:27;;;;;;;5.28;3.38;;;;;;;14.13;63.63;99664.47;6269468;28;20044;-74
2021/11/03 13:08:51;;;;;;;5.38;4.00;;;;;;;14.07;64.59;99652.69;6285175;28;20514;-71
2021/11/03 13:11:52;;;;;;;4.65;3.70;;;;;;;13.88;66.96;99642.88;6273509;28;20052;-69
2021/11/03 13:14:57;;;;;;;6.18;3.95;;;;;;;13.63;67.15;99651.03;6269168;28;20190;-74
2021/11/03 13:18:17;;;;;;;6.70;4.00;;;;;;;13.48;68.02;99648.69;6281553;28;20037;-70
2021/11/03 13:21:45;;;;;;;9.60;3.58;;;;;;;13.34;67.92;99653.38;6296075;28;20047;-74
2021/11/03 13:24:46;;;;;;;23.02;12.10;;;;;;;13.34;68.75;99658.59;6298628;28;20058;-70
2021/11/03 13:27:48;;;;;;;7.18;4.88;;;;;;;13.32;68.44;99666.56;6299567;28;20380;-70
2021/11/03 13:31:21;;;;;;;5.38;4.07;;;;;;;13.04;69.03;99666.09;6298494;28;20452;-75
2021/11/03 13:34:23;;;;;;;7.50;4.82;;;;;;;12.94;71.92;99661.69;6295355;28;20052;-75
2021/11/03 13:37:42;;;;;;;12.05;6.90;;;;;;;12.75;72.61;99660.47;6299329;28;20040;-75
2021/11/03 13:40:52;;;;;;;9.52;5.22;;;;;;;12.73;73.86;99658.94;6298167;28;20063;-71
2021/11/03 13:44:13;;;;;;;9.68;5.30;;;;;;;12.75;73.81;99652.63;6299390;28;20041;-71
2021/11/03 13:47:23;;;;;;;8.27;4.60;;;;;;;12.70;74.66;99645.13;6271230;28;20068;-75
2021/11/03 13:50:32;;;;;;;9.50;5.75;;;;;;;12.71;75.08;99643.34;6296985;28;20071;-71
2021/11/03 13:53:35;;;;;;;7.68;5.30;;;;;;;12.67;74.21;99644.53;6298306;28;20048;-71
2021/11/03 13:56:47;;;;;;;7.28;5.07;;;;;;;12.63;74.54;99658.78;6296850;28;20068;-71
2021/11/03 13:59:55;;;;;;;;;;;;;;;12.65;74.01;99655.09;6298414;28;20045;-75
2021/11/03 14:02:57;;;;;;;7.63;5.68;;;;;;;12.65;75.42;99647.25;6296924;28;20386;-71
2021/11/03 14:06:30;;;;;;;9.80;5.68;;;;;;;12.66;76.08;99654.16;6298250;28;20110;-71
2021/11/03 14:09:31;;;;;;;9.55;6.30;;;;;;;12.59;76.45;99646.88;6298155;28;20044;-71
2021/11/03 14:12:32;;;;;;;9.60;5.95;;;;;;;12.48;76.20;99645.91;6276446;28;20052;-71
2021/11/03 14:15:33;;;;;;;8.98;5.97;;;;;;;12.53;75.94;99660.44;6296073;28;20045;-75
2021/11/03 14:18:33;;;;;;;9.15;5.97;;;;;;;12.46;76.32;99652.22;6274735;28;20059;-71
2021/11/03 14:21:34;;;;;;;11.07;6.28;;;;;;;12.39;76.83;99643.97;6287081;28;20045;-71
2021/11/03 14:24:35;;;;;;;11.05;5.88;;;;;;;12.39;77.57;99659.69;6273147;28;20098;-71